sensor_id;sensor_type;location;lat;lon;timestamp;temperature;humidity
45409;DHT22;31162;51.076;3.784;2022-10-31T00:00:17;13.40;99.90
45409;DHT22;31162;51.076;3.784;2022-10-31T00:02:43;13.20;99.90
45409;DHT22;31162;51.076;3.784;2022-10-31T00:05:09;13.10;99.90
45409;DHT22;31162;51.076;3.784;2022-10-31T00:07:34;13.10;99.90
45409;DHT22;31162;51.076;3.784;2022-10-31T00:10:00;13.10;99.90
45409;DHT22;31162;51.076;3.784;2022-10-31T00:12:26;13.10;99.90
45409;DHT22;31162;51.076;3.784;2022-10-31T00:14:51;13.00;99.90
45409;DHT22;31162;51.076;3.784;2022-10-31T00:17:17;12.90;99.90
45409;DHT22;31162;51.076;3.784;2022-10-31T00:19:43;12.80;99.90
45409;DHT22;31162;51.076;3.784;2022-10-31T00:22:08;12.70;99.90
45409;DHT22;31162;51.076;3.784;2022-10-31T00:24:34;12.70;99.90
45409;DHT22;31162;51.076;3.784;2022-10-31T00:27:00;12.80;99.90
45409;DHT22;31162;51.076;3.784;2022-10-31T00:29:25;12.90;99.90
45409;DHT22;31162;51.076;3.784;2022-10-31T00:31:52;12.80;99.90
45409;DHT22;31162;51.076;3.784;2022-10-31T00:34:17;12.80;99.90
45409;DHT22;31162;51.076;3.784;2022-10-31T00:36:43;12.60;99.90
45409;DHT22;31162;51.076;3.784;2022-10-31T00:39:08;12.60;99.90
45409;DHT22;31162;51.076;3.784;2022-10-31T00:41:34;12.50;99.90
45409;DHT22;31162;51.076;3.784;2022-10-31T00:44:00;12.50;99.90
45409;DHT22;31162;51.076;3.784;2022-10-31T00:46:25;12.50;99.90
45409;DHT22;31162;51.076;3.784;2022-10-31T00:48:51;12.40;99.90
45409;DHT22;31162;51.076;3.784;2022-10-31T00:51:17;12.40;99.90
45409;DHT22;31162;51.076;3.784;2022-10-31T00:53:42;12.30;99.90
45409;DHT22;31162;51.076;3.784;2022-10-31T00:56:08;12.30;99.90
45409;DHT22;31162;51.076;3.784;2022-10-31T00:58:33;12.40;99.90
45409;DHT22;31162;51.076;3.784;2022-10-31T01:00:59;12.20;99.90
45409;DHT22;31162;51.076;3.784;2022-10-31T01:03:28;12.10;99.90
45409;DHT22;31162;51.076;3.784;2022-10-31T01:06:07;12.00;99.90
45409;DHT22;31162;51.076;3.784;2022-10-31T01:08:34;12.00;99.90
45409;DHT22;31162;51.076;3.784;2022-10-31T01:11:05;12.00;99.90
45409;DHT22;31162;51.076;3.784;2022-10-31T01:13:31;12.00;99.90
45409;DHT22;31162;51.076;3.784;2022-10-31T01:15:58;11.90;99.90
45409;DHT22;31162;51.076;3.784;2022-10-31T01:18:24;11.90;99.90
45409;DHT22;31162;51.076;3.784;2022-10-31T01:21:10;12.00;99.90
45409;DHT22;31162;51.076;3.784;2022-10-31T01:23:36;11.80;99.90
45409;DHT22;31162;51.076;3.784;2022-10-31T01:26:23;11.80;99.90
45409;DHT22;31162;51.076;3.784;2022-10-31T01:29:08;11.80;99.90
45409;DHT22;31162;51.076;3.784;2022-10-31T01:31:36;11.70;99.90
45409;DHT22;31162;51.076;3.784;2022-10-31T01:34:03;11.80;99.90
45409;DHT22;31162;51.076;3.784;2022-10-31T01:36:31;11.80;99.90
45409;DHT22;31162;51.076;3.784;2022-10-31T01:39:00;11.70;99.90
45409;DHT22;31162;51.076;3.784;2022-10-31T01:41:29;11.60;99.90
45409;DHT22;31162;51.076;3.784;2022-10-31T01:44:02;11.70;99.90
45409;DHT22;31162;51.076;3.784;2022-10-31T01:46:37;11.80;99.90
45409;DHT22;31162;51.076;3.784;2022-10-31T01:49:11;11.80;99.90
45409;DHT22;31162;51.076;3.784;2022-10-31T01:51:44;11.70;99.90
45409;DHT22;31162;51.076;3.784;2022-10-31T01:54:16;11.70;99.90
45409;DHT22;31162;51.076;3.784;2022-10-31T01:56:44;11.70;99.90
45409;DHT22;31162;51.076;3.784;2022-10-31T01:59:15;11.70;99.90
45409;DHT22;31162;51.076;3.784;2022-10-31T02:01:41;11.70;99.90
45409;DHT22;31162;51.076;3.784;2022-10-31T02:04:08;11.70;99.90
45409;DHT22;31162;51.076;3.784;2022-10-31T02:09:04;11.50;99.90
45409;DHT22;31162;51.076;3.784;2022-10-31T02:11:31;11.50;99.90
45409;DHT22;31162;51.076;3.784;2022-10-31T02:13:59;11.50;99.90
45409;DHT22;31162;51.076;3.784;2022-10-31T02:16:25;11.40;99.90
45409;DHT22;31162;51.076;3.784;2022-10-31T02:18:51;11.40;99.90
45409;DHT22;31162;51.076;3.784;2022-10-31T02:21:23;11.30;99.90
45409;DHT22;31162;51.076;3.784;2022-10-31T02:35:33;11.10;99.90
45409;DHT22;31162;51.076;3.784;2022-10-31T02:47:05;11.00;99.90
45409;DHT22;31162;51.076;3.784;2022-10-31T02:52:21;10.80;99.90
45409;DHT22;31162;51.076;3.784;2022-10-31T02:54:47;10.80;99.90
45409;DHT22;31162;51.076;3.784;2022-10-31T02:57:14;10.90;99.90
45409;DHT22;31162;51.076;3.784;2022-10-31T02:59:47;10.90;99.90
45409;DHT22;31162;51.076;3.784;2022-10-31T03:10:58;10.80;99.90
45409;DHT22;31162;51.076;3.784;2022-10-31T03:18:52;10.60;99.90
45409;DHT22;31162;51.076;3.784;2022-10-31T03:21:26;10.60;99.90
45409;DHT22;31162;51.076;3.784;2022-10-31T03:23:53;10.60;99.90
45409;DHT22;31162;51.076;3.784;2022-10-31T03:26:21;10.70;99.90
45409;DHT22;31162;51.076;3.784;2022-10-31T03:28:56;10.80;99.90
45409;DHT22;31162;51.076;3.784;2022-10-31T03:31:27;10.80;99.90
45409;DHT22;31162;51.076;3.784;2022-10-31T03:33:55;10.70;99.90
45409;DHT22;31162;51.076;3.784;2022-10-31T03:36:22;10.70;99.90
45409;DHT22;31162;51.076;3.784;2022-10-31T03:38:49;10.60;99.90
45409;DHT22;31162;51.076;3.784;2022-10-31T03:41:21;10.50;99.90
45409;DHT22;31162;51.076;3.784;2022-10-31T03:44:04;10.50;99.90
45409;DHT22;31162;51.076;3.784;2022-10-31T03:46:32;10.50;99.90
45409;DHT22;31162;51.076;3.784;2022-10-31T03:48:58;10.40;99.90
45409;DHT22;31162;51.076;3.784;2022-10-31T03:54:25;10.50;99.90
45409;DHT22;31162;51.076;3.784;2022-10-31T03:57:00;10.50;99.90
45409;DHT22;31162;51.076;3.784;2022-10-31T03:59:37;10.40;99.90
45409;DHT22;31162;51.076;3.784;2022-10-31T04:02:13;10.50;99.90
45409;DHT22;31162;51.076;3.784;2022-10-31T04:04:39;10.60;99.90
45409;DHT22;31162;51.076;3.784;2022-10-31T04:07:06;10.60;99.90
45409;DHT22;31162;51.076;3.784;2022-10-31T04:09:34;10.60;99.90
45409;DHT22;31162;51.076;3.784;2022-10-31T04:12:03;10.40;99.90
45409;DHT22;31162;51.076;3.784;2022-10-31T04:14:35;10.30;99.90
45409;DHT22;31162;51.076;3.784;2022-10-31T04:17:03;10.30;99.90
45409;DHT22;31162;51.076;3.784;2022-10-31T04:19:32;10.20;99.90
45409;DHT22;31162;51.076;3.784;2022-10-31T04:21:57;10.30;99.90
45409;DHT22;31162;51.076;3.784;2022-10-31T04:24:23;10.30;99.90
45409;DHT22;31162;51.076;3.784;2022-10-31T04:26:48;10.20;99.90
45409;DHT22;31162;51.076;3.784;2022-10-31T04:29:14;10.10;99.90
45409;DHT22;31162;51.076;3.784;2022-10-31T04:31:39;10.10;99.90
45409;DHT22;31162;51.076;3.784;2022-10-31T04:34:05;10.10;99.90
45409;DHT22;31162;51.076;3.784;2022-10-31T04:36:31;10.10;99.90
45409;DHT22;31162;51.076;3.784;2022-10-31T04:38:56;10.00;99.90
45409;DHT22;31162;51.076;3.784;2022-10-31T04:41:22;10.20;99.90
45409;DHT22;31162;51.076;3.784;2022-10-31T04:43:47;10.20;99.90
45409;DHT22;31162;51.076;3.784;2022-10-31T04:46:13;10.10;99.90
45409;DHT22;31162;51.076;3.784;2022-10-31T04:48:39;10.10;99.90
45409;DHT22;31162;51.076;3.784;2022-10-31T04:51:04;10.00;99.90
45409;DHT22;31162;51.076;3.784;2022-10-31T04:53:30;10.00;99.90
45409;DHT22;31162;51.076;3.784;2022-10-31T04:55:58;9.90;99.90
45409;DHT22;31162;51.076;3.784;2022-10-31T04:58:24;10.10;99.90
45409;DHT22;31162;51.076;3.784;2022-10-31T05:00:52;10.00;99.90
45409;DHT22;31162;51.076;3.784;2022-10-31T05:03:18;10.00;99.90
45409;DHT22;31162;51.076;3.784;2022-10-31T05:05:44;10.00;99.90
45409;DHT22;31162;51.076;3.784;2022-10-31T05:08:09;9.80;99.90
45409;DHT22;31162;51.076;3.784;2022-10-31T05:10:35;9.90;99.90
45409;DHT22;31162;51.076;3.784;2022-10-31T05:13:02;10.00;99.90
45409;DHT22;31162;51.076;3.784;2022-10-31T05:15:29;10.00;99.90
45409;DHT22;31162;51.076;3.784;2022-10-31T05:17:55;10.10;99.90
45409;DHT22;31162;51.076;3.784;2022-10-31T05:20:23;10.10;99.90
45409;DHT22;31162;51.076;3.784;2022-10-31T05:22:51;10.00;99.90
45409;DHT22;31162;51.076;3.784;2022-10-31T05:25:19;9.90;99.90
45409;DHT22;31162;51.076;3.784;2022-10-31T05:27:46;9.90;99.90
45409;DHT22;31162;51.076;3.784;2022-10-31T05:30:14;9.90;99.90
45409;DHT22;31162;51.076;3.784;2022-10-31T05:32:46;9.90;99.90
45409;DHT22;31162;51.076;3.784;2022-10-31T05:35:14;9.80;99.90
45409;DHT22;31162;51.076;3.784;2022-10-31T05:37:40;9.80;99.90
45409;DHT22;31162;51.076;3.784;2022-10-31T05:40:08;9.80;99.90
45409;DHT22;31162;51.076;3.784;2022-10-31T05:42:34;9.70;99.90
45409;DHT22;31162;51.076;3.784;2022-10-31T05:45:00;9.70;99.90
45409;DHT22;31162;51.076;3.784;2022-10-31T05:47:26;9.80;99.90
45409;DHT22;31162;51.076;3.784;2022-10-31T05:49:52;9.70;99.90
45409;DHT22;31162;51.076;3.784;2022-10-31T05:52:17;9.60;99.90
45409;DHT22;31162;51.076;3.784;2022-10-31T05:54:43;9.60;99.90
45409;DHT22;31162;51.076;3.784;2022-10-31T05:57:09;9.60;99.90
45409;DHT22;31162;51.076;3.784;2022-10-31T05:59:35;9.70;99.90
45409;DHT22;31162;51.076;3.784;2022-10-31T06:02:00;9.80;99.90
45409;DHT22;31162;51.076;3.784;2022-10-31T06:04:26;9.90;99.90
45409;DHT22;31162;51.076;3.784;2022-10-31T06:06:52;10.00;99.90
45409;DHT22;31162;51.076;3.784;2022-10-31T06:09:17;9.80;99.90
45409;DHT22;31162;51.076;3.784;2022-10-31T06:11:43;9.80;99.90
45409;DHT22;31162;51.076;3.784;2022-10-31T06:14:09;9.90;99.90
45409;DHT22;31162;51.076;3.784;2022-10-31T06:16:34;9.90;99.90
45409;DHT22;31162;51.076;3.784;2022-10-31T06:19:00;10.00;99.90
45409;DHT22;31162;51.076;3.784;2022-10-31T06:21:25;10.10;99.90
45409;DHT22;31162;51.076;3.784;2022-10-31T06:23:51;10.20;99.90
45409;DHT22;31162;51.076;3.784;2022-10-31T06:26:17;10.20;99.90
45409;DHT22;31162;51.076;3.784;2022-10-31T06:28:42;10.20;99.90
45409;DHT22;31162;51.076;3.784;2022-10-31T06:31:08;10.20;99.90
45409;DHT22;31162;51.076;3.784;2022-10-31T06:33:34;10.30;99.90
45409;DHT22;31162;51.076;3.784;2022-10-31T06:36:00;10.30;99.90
45409;DHT22;31162;51.076;3.784;2022-10-31T06:38:26;10.40;99.90
45409;DHT22;31162;51.076;3.784;2022-10-31T06:40:53;10.60;99.90
45409;DHT22;31162;51.076;3.784;2022-10-31T06:43:19;10.60;99.90
45409;DHT22;31162;51.076;3.784;2022-10-31T06:45:45;10.60;99.90
45409;DHT22;31162;51.076;3.784;2022-10-31T06:48:11;10.60;99.90
45409;DHT22;31162;51.076;3.784;2022-10-31T06:50:36;10.60;99.90
45409;DHT22;31162;51.076;3.784;2022-10-31T06:53:02;10.70;99.90
45409;DHT22;31162;51.076;3.784;2022-10-31T06:55:28;10.90;99.90
45409;DHT22;31162;51.076;3.784;2022-10-31T06:57:59;10.90;99.90
45409;DHT22;31162;51.076;3.784;2022-10-31T07:00:25;11.00;99.90
45409;DHT22;31162;51.076;3.784;2022-10-31T07:02:56;11.10;99.90
45409;DHT22;31162;51.076;3.784;2022-10-31T07:05:22;11.20;99.90
45409;DHT22;31162;51.076;3.784;2022-10-31T07:07:52;11.20;99.90
45409;DHT22;31162;51.076;3.784;2022-10-31T07:10:19;11.40;99.90
45409;DHT22;31162;51.076;3.784;2022-10-31T07:12:44;11.40;99.90
45409;DHT22;31162;51.076;3.784;2022-10-31T07:15:10;11.50;99.90
45409;DHT22;31162;51.076;3.784;2022-10-31T07:17:35;11.60;99.90
45409;DHT22;31162;51.076;3.784;2022-10-31T07:20:01;11.60;99.90
45409;DHT22;31162;51.076;3.784;2022-10-31T07:22:37;11.60;99.90
45409;DHT22;31162;51.076;3.784;2022-10-31T07:25:04;11.60;99.90
45409;DHT22;31162;51.076;3.784;2022-10-31T07:27:36;11.70;99.90
45409;DHT22;31162;51.076;3.784;2022-10-31T07:30:02;11.70;99.90
45409;DHT22;31162;51.076;3.784;2022-10-31T07:32:28;11.70;99.90
45409;DHT22;31162;51.076;3.784;2022-10-31T07:34:53;11.80;99.90
45409;DHT22;31162;51.076;3.784;2022-10-31T07:37:19;11.70;99.90
45409;DHT22;31162;51.076;3.784;2022-10-31T07:39:44;11.80;99.90
45409;DHT22;31162;51.076;3.784;2022-10-31T07:42:10;11.90;99.90
45409;DHT22;31162;51.076;3.784;2022-10-31T07:44:36;12.00;99.90
45409;DHT22;31162;51.076;3.784;2022-10-31T07:47:01;12.00;99.90
45409;DHT22;31162;51.076;3.784;2022-10-31T07:49:27;12.10;99.90
45409;DHT22;31162;51.076;3.784;2022-10-31T07:51:52;12.10;99.90
45409;DHT22;31162;51.076;3.784;2022-10-31T07:54:18;12.20;99.90
45409;DHT22;31162;51.076;3.784;2022-10-31T07:56:43;12.30;99.90
45409;DHT22;31162;51.076;3.784;2022-10-31T07:59:09;12.30;99.90
45409;DHT22;31162;51.076;3.784;2022-10-31T08:01:35;12.30;99.90
45409;DHT22;31162;51.076;3.784;2022-10-31T08:04:00;12.50;99.90
45409;DHT22;31162;51.076;3.784;2022-10-31T08:06:26;12.60;99.90
45409;DHT22;31162;51.076;3.784;2022-10-31T08:08:51;12.70;99.90
45409;DHT22;31162;51.076;3.784;2022-10-31T08:11:17;12.90;99.90
45409;DHT22;31162;51.076;3.784;2022-10-31T08:13:43;12.90;99.90
45409;DHT22;31162;51.076;3.784;2022-10-31T08:16:08;13.00;99.90
45409;DHT22;31162;51.076;3.784;2022-10-31T08:18:34;13.00;99.90
45409;DHT22;31162;51.076;3.784;2022-10-31T08:21:02;13.00;99.90
45409;DHT22;31162;51.076;3.784;2022-10-31T08:23:28;13.00;99.90
45409;DHT22;31162;51.076;3.784;2022-10-31T08:25:54;13.10;99.90
45409;DHT22;31162;51.076;3.784;2022-10-31T08:28:19;13.10;99.90
45409;DHT22;31162;51.076;3.784;2022-10-31T08:30:45;13.10;99.90
45409;DHT22;31162;51.076;3.784;2022-10-31T08:33:13;13.10;99.90
45409;DHT22;31162;51.076;3.784;2022-10-31T08:35:40;13.30;99.90
45409;DHT22;31162;51.076;3.784;2022-10-31T08:38:06;13.40;99.90
45409;DHT22;31162;51.076;3.784;2022-10-31T08:40:33;13.60;99.90
45409;DHT22;31162;51.076;3.784;2022-10-31T08:45:34;13.80;99.90
45409;DHT22;31162;51.076;3.784;2022-10-31T08:48:02;13.70;99.90
45409;DHT22;31162;51.076;3.784;2022-10-31T08:50:29;13.50;99.90
45409;DHT22;31162;51.076;3.784;2022-10-31T08:53:03;13.50;99.90
45409;DHT22;31162;51.076;3.784;2022-10-31T08:55:29;13.70;99.90
45409;DHT22;31162;51.076;3.784;2022-10-31T08:57:56;13.90;99.90
45409;DHT22;31162;51.076;3.784;2022-10-31T09:00:21;14.10;99.90
45409;DHT22;31162;51.076;3.784;2022-10-31T09:02:47;14.20;99.90
45409;DHT22;31162;51.076;3.784;2022-10-31T09:05:13;14.40;99.90
45409;DHT22;31162;51.076;3.784;2022-10-31T09:07:38;14.40;99.90
45409;DHT22;31162;51.076;3.784;2022-10-31T09:10:04;14.60;99.90
45409;DHT22;31162;51.076;3.784;2022-10-31T09:12:30;14.60;99.90
45409;DHT22;31162;51.076;3.784;2022-10-31T09:14:55;14.70;99.90
45409;DHT22;31162;51.076;3.784;2022-10-31T09:17:21;15.10;99.90
45409;DHT22;31162;51.076;3.784;2022-10-31T09:19:46;15.20;99.90
45409;DHT22;31162;51.076;3.784;2022-10-31T09:22:12;15.20;99.90
45409;DHT22;31162;51.076;3.784;2022-10-31T09:24:38;15.40;99.90
45409;DHT22;31162;51.076;3.784;2022-10-31T09:27:03;15.40;99.90
45409;DHT22;31162;51.076;3.784;2022-10-31T09:29:29;15.40;99.90
45409;DHT22;31162;51.076;3.784;2022-10-31T09:31:56;15.40;99.90
45409;DHT22;31162;51.076;3.784;2022-10-31T09:34:22;15.00;99.90
45409;DHT22;31162;51.076;3.784;2022-10-31T09:36:47;14.70;99.90
45409;DHT22;31162;51.076;3.784;2022-10-31T09:39:13;14.80;99.90
45409;DHT22;31162;51.076;3.784;2022-10-31T09:44:38;15.30;99.90
45409;DHT22;31162;51.076;3.784;2022-10-31T09:47:38;15.40;99.90
45409;DHT22;31162;51.076;3.784;2022-10-31T09:50:19;15.50;99.90
45409;DHT22;31162;51.076;3.784;2022-10-31T09:55:46;15.80;99.90
45409;DHT22;31162;51.076;3.784;2022-10-31T09:58:27;15.50;99.90
45409;DHT22;31162;51.076;3.784;2022-10-31T10:00:56;15.50;99.90
45409;DHT22;31162;51.076;3.784;2022-10-31T10:03:34;15.50;99.90
45409;DHT22;31162;51.076;3.784;2022-10-31T10:06:17;15.30;99.90
45409;DHT22;31162;51.076;3.784;2022-10-31T10:08:44;15.40;99.90
45409;DHT22;31162;51.076;3.784;2022-10-31T10:22:12;15.50;99.90
45409;DHT22;31162;51.076;3.784;2022-10-31T10:27:35;15.60;99.90
45409;DHT22;31162;51.076;3.784;2022-10-31T10:30:16;15.70;99.90
45409;DHT22;31162;51.076;3.784;2022-10-31T10:32:49;15.80;99.90
45409;DHT22;31162;51.076;3.784;2022-10-31T10:35:31;16.00;99.90
45409;DHT22;31162;51.076;3.784;2022-10-31T10:38:34;16.20;99.90
45409;DHT22;31162;51.076;3.784;2022-10-31T10:41:07;16.50;99.90
45409;DHT22;31162;51.076;3.784;2022-10-31T10:43:36;17.00;99.90
45409;DHT22;31162;51.076;3.784;2022-10-31T10:51:46;18.20;99.90
45409;DHT22;31162;51.076;3.784;2022-10-31T10:59:55;18.30;99.90
45409;DHT22;31162;51.076;3.784;2022-10-31T11:02:26;18.40;99.90
45409;DHT22;31162;51.076;3.784;2022-10-31T11:04:54;18.60;99.90
45409;DHT22;31162;51.076;3.784;2022-10-31T11:07:21;18.80;99.90
45409;DHT22;31162;51.076;3.784;2022-10-31T11:09:47;19.00;99.90
45409;DHT22;31162;51.076;3.784;2022-10-31T11:12:26;19.00;99.90
45409;DHT22;31162;51.076;3.784;2022-10-31T11:15:05;19.00;99.90
45409;DHT22;31162;51.076;3.784;2022-10-31T11:17:36;19.10;99.90
45409;DHT22;31162;51.076;3.784;2022-10-31T11:22:38;18.80;99.90
45409;DHT22;31162;51.076;3.784;2022-10-31T11:27:44;17.60;99.90
45409;DHT22;31162;51.076;3.784;2022-10-31T11:30:12;17.70;99.90
45409;DHT22;31162;51.076;3.784;2022-10-31T11:32:49;17.80;99.90
45409;DHT22;31162;51.076;3.784;2022-10-31T11:35:17;17.90;99.90
45409;DHT22;31162;51.076;3.784;2022-10-31T11:37:45;17.80;99.90
45409;DHT22;31162;51.076;3.784;2022-10-31T11:40:16;18.10;99.90
45409;DHT22;31162;51.076;3.784;2022-10-31T11:42:43;18.40;99.90
45409;DHT22;31162;51.076;3.784;2022-10-31T11:45:17;18.60;99.90
45409;DHT22;31162;51.076;3.784;2022-10-31T11:47:48;18.50;99.90
45409;DHT22;31162;51.076;3.784;2022-10-31T11:50:47;18.60;99.90
45409;DHT22;31162;51.076;3.784;2022-10-31T11:53:25;18.40;99.90
45409;DHT22;31162;51.076;3.784;2022-10-31T11:56:10;18.00;99.90
45409;DHT22;31162;51.076;3.784;2022-10-31T11:58:37;17.80;99.90
45409;DHT22;31162;51.076;3.784;2022-10-31T12:01:03;17.70;99.90
45409;DHT22;31162;51.076;3.784;2022-10-31T12:03:48;17.90;99.90
45409;DHT22;31162;51.076;3.784;2022-10-31T12:06:23;17.50;99.90
45409;DHT22;31162;51.076;3.784;2022-10-31T12:08:51;17.80;99.90
45409;DHT22;31162;51.076;3.784;2022-10-31T12:16:49;18.10;99.90
45409;DHT22;31162;51.076;3.784;2022-10-31T12:19:31;18.20;99.90
45409;DHT22;31162;51.076;3.784;2022-10-31T12:22:50;18.00;99.90
45409;DHT22;31162;51.076;3.784;2022-10-31T12:25:34;17.60;99.90
45409;DHT22;31162;51.076;3.784;2022-10-31T12:37:24;17.90;99.90
45409;DHT22;31162;51.076;3.784;2022-10-31T12:58:48;18.10;99.90
45409;DHT22;31162;51.076;3.784;2022-10-31T13:01:22;18.10;99.90
45409;DHT22;31162;51.076;3.784;2022-10-31T13:04:16;18.10;99.90
45409;DHT22;31162;51.076;3.784;2022-10-31T13:06:51;18.30;99.90
45409;DHT22;31162;51.076;3.784;2022-10-31T13:09:43;18.10;99.90
45409;DHT22;31162;51.076;3.784;2022-10-31T13:12:14;18.00;99.90
45409;DHT22;31162;51.076;3.784;2022-10-31T13:15:04;17.80;99.90
45409;DHT22;31162;51.076;3.784;2022-10-31T13:17:35;17.90;99.90
45409;DHT22;31162;51.076;3.784;2022-10-31T13:20:20;17.70;99.90
45409;DHT22;31162;51.076;3.784;2022-10-31T13:22:51;18.00;99.90
45409;DHT22;31162;51.076;3.784;2022-10-31T13:25:25;18.60;99.90
45409;DHT22;31162;51.076;3.784;2022-10-31T13:28:01;18.00;99.90
45409;DHT22;31162;51.076;3.784;2022-10-31T13:30:32;17.70;99.90
45409;DHT22;31162;51.076;3.784;2022-10-31T13:33:13;17.60;99.90
45409;DHT22;31162;51.076;3.784;2022-10-31T13:36:05;17.70;99.90
45409;DHT22;31162;51.076;3.784;2022-10-31T13:41:22;17.80;99.90
45409;DHT22;31162;51.076;3.784;2022-10-31T13:44:20;17.80;99.90
45409;DHT22;31162;51.076;3.784;2022-10-31T13:46:49;17.80;99.90
45409;DHT22;31162;51.076;3.784;2022-10-31T13:54:46;18.00;99.90
45409;DHT22;31162;51.076;3.784;2022-10-31T13:59:50;17.70;99.90
45409;DHT22;31162;51.076;3.784;2022-10-31T14:02:19;17.70;99.90
45409;DHT22;31162;51.076;3.784;2022-10-31T14:04:47;17.70;99.90
45409;DHT22;31162;51.076;3.784;2022-10-31T14:07:19;17.70;99.90
45409;DHT22;31162;51.076;3.784;2022-10-31T14:10:07;17.50;99.90
45409;DHT22;31162;51.076;3.784;2022-10-31T14:12:46;17.40;99.90
45409;DHT22;31162;51.076;3.784;2022-10-31T14:17:58;17.50;99.90
45409;DHT22;31162;51.076;3.784;2022-10-31T14:20:39;17.40;99.90
45409;DHT22;31162;51.076;3.784;2022-10-31T14:28:52;17.10;99.90
45409;DHT22;31162;51.076;3.784;2022-10-31T14:36:46;17.10;99.90
45409;DHT22;31162;51.076;3.784;2022-10-31T14:42:22;17.20;99.90
45409;DHT22;31162;51.076;3.784;2022-10-31T14:47:42;17.20;99.90
45409;DHT22;31162;51.076;3.784;2022-10-31T14:50:29;17.40;99.90
45409;DHT22;31162;51.076;3.784;2022-10-31T14:53:01;17.40;99.90
45409;DHT22;31162;51.076;3.784;2022-10-31T14:55:28;17.60;99.90
45409;DHT22;31162;51.076;3.784;2022-10-31T14:58:03;17.80;99.90
45409;DHT22;31162;51.076;3.784;2022-10-31T15:00:31;17.60;99.90
45409;DHT22;31162;51.076;3.784;2022-10-31T15:03:14;17.70;99.90
45409;DHT22;31162;51.076;3.784;2022-10-31T15:05:52;17.80;99.90
45409;DHT22;31162;51.076;3.784;2022-10-31T15:08:29;17.60;99.90
45409;DHT22;31162;51.076;3.784;2022-10-31T15:10:56;17.50;99.90
45409;DHT22;31162;51.076;3.784;2022-10-31T15:13:22;17.50;99.90
45409;DHT22;31162;51.076;3.784;2022-10-31T15:15:51;17.50;99.90
45409;DHT22;31162;51.076;3.784;2022-10-31T15:18:27;17.50;99.90
45409;DHT22;31162;51.076;3.784;2022-10-31T15:20:54;17.40;99.90
45409;DHT22;31162;51.076;3.784;2022-10-31T15:23:29;17.40;99.90
45409;DHT22;31162;51.076;3.784;2022-10-31T15:26:00;17.30;99.90
45409;DHT22;31162;51.076;3.784;2022-10-31T15:28:26;17.30;99.90
45409;DHT22;31162;51.076;3.784;2022-10-31T15:30:54;17.30;99.90
45409;DHT22;31162;51.076;3.784;2022-10-31T15:33:27;17.20;99.90
45409;DHT22;31162;51.076;3.784;2022-10-31T15:35:58;17.20;99.90
45409;DHT22;31162;51.076;3.784;2022-10-31T15:38:24;17.30;99.90
45409;DHT22;31162;51.076;3.784;2022-10-31T15:41:05;17.30;99.90
45409;DHT22;31162;51.076;3.784;2022-10-31T15:43:44;17.50;99.90
45409;DHT22;31162;51.076;3.784;2022-10-31T15:46:10;17.40;99.90
45409;DHT22;31162;51.076;3.784;2022-10-31T15:48:36;17.40;99.90
45409;DHT22;31162;51.076;3.784;2022-10-31T15:51:03;17.40;99.90
45409;DHT22;31162;51.076;3.784;2022-10-31T15:53:37;17.40;99.90
45409;DHT22;31162;51.076;3.784;2022-10-31T15:56:10;17.20;99.90
45409;DHT22;31162;51.076;3.784;2022-10-31T15:58:46;17.00;99.90
45409;DHT22;31162;51.076;3.784;2022-10-31T16:01:27;16.80;99.90
45409;DHT22;31162;51.076;3.784;2022-10-31T16:04:19;16.70;99.90
45409;DHT22;31162;51.076;3.784;2022-10-31T16:06:59;16.80;99.90
45409;DHT22;31162;51.076;3.784;2022-10-31T16:09:27;16.80;99.90
45409;DHT22;31162;51.076;3.784;2022-10-31T16:11:55;16.90;99.90
45409;DHT22;31162;51.076;3.784;2022-10-31T16:14:29;16.90;99.90
45409;DHT22;31162;51.076;3.784;2022-10-31T16:16:58;16.70;99.90
45409;DHT22;31162;51.076;3.784;2022-10-31T16:19:30;16.70;99.90
45409;DHT22;31162;51.076;3.784;2022-10-31T16:22:08;16.60;99.90
45409;DHT22;31162;51.076;3.784;2022-10-31T16:27:24;16.60;99.90
45409;DHT22;31162;51.076;3.784;2022-10-31T16:29:54;16.40;99.90
45409;DHT22;31162;51.076;3.784;2022-10-31T16:35:19;16.30;99.90
45409;DHT22;31162;51.076;3.784;2022-10-31T16:37:48;16.30;99.90
45409;DHT22;31162;51.076;3.784;2022-10-31T16:40:14;16.30;99.90
45409;DHT22;31162;51.076;3.784;2022-10-31T16:42:40;16.30;99.90
45409;DHT22;31162;51.076;3.784;2022-10-31T16:45:08;16.30;99.90
45409;DHT22;31162;51.076;3.784;2022-10-31T16:47:37;16.30;99.90
45409;DHT22;31162;51.076;3.784;2022-10-31T16:50:10;16.30;99.90
45409;DHT22;31162;51.076;3.784;2022-10-31T16:52:37;16.20;99.90
45409;DHT22;31162;51.076;3.784;2022-10-31T16:55:02;16.00;99.90
45409;DHT22;31162;51.076;3.784;2022-10-31T16:57:29;16.10;99.90
45409;DHT22;31162;51.076;3.784;2022-10-31T16:59:56;16.30;99.90
45409;DHT22;31162;51.076;3.784;2022-10-31T17:02:22;16.20;99.90
45409;DHT22;31162;51.076;3.784;2022-10-31T17:04:48;16.00;99.90
45409;DHT22;31162;51.076;3.784;2022-10-31T17:07:14;15.90;99.90
45409;DHT22;31162;51.076;3.784;2022-10-31T17:09:39;15.70;99.90
45409;DHT22;31162;51.076;3.784;2022-10-31T17:12:09;15.70;99.90
45409;DHT22;31162;51.076;3.784;2022-10-31T17:14:39;15.70;99.90
45409;DHT22;31162;51.076;3.784;2022-10-31T17:17:04;15.60;99.90
45409;DHT22;31162;51.076;3.784;2022-10-31T17:19:30;15.60;99.90
45409;DHT22;31162;51.076;3.784;2022-10-31T17:21:55;15.60;99.90
45409;DHT22;31162;51.076;3.784;2022-10-31T17:24:21;15.60;99.90
45409;DHT22;31162;51.076;3.784;2022-10-31T17:26:47;15.50;99.90
45409;DHT22;31162;51.076;3.784;2022-10-31T17:29:12;15.60;99.90
45409;DHT22;31162;51.076;3.784;2022-10-31T17:31:39;15.60;99.90
45409;DHT22;31162;51.076;3.784;2022-10-31T17:34:06;15.60;99.90
45409;DHT22;31162;51.076;3.784;2022-10-31T17:36:33;15.80;99.90
45409;DHT22;31162;51.076;3.784;2022-10-31T17:38:59;15.70;99.90
45409;DHT22;31162;51.076;3.784;2022-10-31T17:41:25;15.50;99.90
45409;DHT22;31162;51.076;3.784;2022-10-31T17:43:58;15.50;99.90
45409;DHT22;31162;51.076;3.784;2022-10-31T17:46:23;15.60;99.90
45409;DHT22;31162;51.076;3.784;2022-10-31T17:48:49;15.70;99.90
45409;DHT22;31162;51.076;3.784;2022-10-31T17:51:14;15.70;99.90
45409;DHT22;31162;51.076;3.784;2022-10-31T17:53:40;15.80;99.90
45409;DHT22;31162;51.076;3.784;2022-10-31T17:56:07;15.70;99.90
45409;DHT22;31162;51.076;3.784;2022-10-31T17:58:34;15.90;99.90
45409;DHT22;31162;51.076;3.784;2022-10-31T18:01:05;16.00;99.90
45409;DHT22;31162;51.076;3.784;2022-10-31T18:03:31;16.00;99.90
45409;DHT22;31162;51.076;3.784;2022-10-31T18:05:58;16.00;99.90
45409;DHT22;31162;51.076;3.784;2022-10-31T18:08:28;16.00;99.90
45409;DHT22;31162;51.076;3.784;2022-10-31T18:10:54;15.90;99.90
45409;DHT22;31162;51.076;3.784;2022-10-31T18:13:21;15.80;99.90
45409;DHT22;31162;51.076;3.784;2022-10-31T18:15:47;15.80;99.90
45409;DHT22;31162;51.076;3.784;2022-10-31T18:18:13;15.80;99.90